EST,Max TemperatureF,Mean TemperatureF,Min TemperatureF,Max Dew PointF,MeanDew PointF,Min DewpointF,Max Humidity, Mean Humidity, Min Humidity, Max Sea Level PressureIn, Mean Sea Level PressureIn, Min Sea Level PressureIn, Max VisibilityMiles, Mean VisibilityMiles, Min VisibilityMiles, Max Wind SpeedMPH, Mean Wind SpeedMPH, Max Gust SpeedMPH,PrecipitationIn, CloudCover, Events, WindDirDegrees
2014-1-1,48,37,26,27,24,21,85,62,39,30.41,30.30,30.14,10,10,10,6,1,8,0.00,0,,206
2014-1-2,45,38,31,41,36,25,89,77,65,30.11,29.76,29.62,10,7,1,15,3,20,0.37,6,Rain,260
2014-1-3,39,28,17,22,8,3,64,48,31,30.48,30.22,29.73,10,10,10,28,11,39,0.00,0,,322
2014-1-4,41,28,14,20,14,10,88,59,30,30.52,30.41,30.29,10,10,10,9,2,22,0.00,4,,197
2014-1-5,40,37,33,39,34,25,100,76,52,30.26,30.05,29.76,10,4,0,8,2,9,0.21,8,Fog-Rain,191
2014-1-6,44,28,12,43,28,-8,100,69,38,30.19,29.78,29.62,10,7,0,23,11,32,0.13,5,Fog-Rain,279
2014-1-7,24,16,7,5,-4,-10,64,46,27,30.49,30.40,30.22,10,10,10,21,7,30,0.00,0,,270
2014-1-8,43,26,9,16,9,1,83,54,25,30.60,30.52,30.47,10,10,10,7,1,12,0.00,0,,220
2014-1-9,51,37,22,20,16,11,74,48,21,30.58,30.51,30.48,10,10,10,7,2,9,0.00,2,,142
2014-1-10,40,37,34,37,33,20,92,68,44,30.45,30.32,30.11,10,5,2,10,4,13,0.88,8,Rain,34
2014-1-11,59,49,38,57,44,37,93,88,83,30.11,29.80,29.56,10,5,0,22,5,30,1.10,7,Fog-Rain-Thunderstorm,239
2014-1-12,57,45,33,39,31,27,75,54,33,30.14,29.98,29.69,10,10,10,16,7,22,0.00,0,,258
2014-1-13,60,45,29,40,33,27,92,64,36,30.13,30.05,29.94,10,10,7,18,5,25,0.03,1,Rain,211
2014-1-14,55,44,33,46,40,30,93,79,64,29.96,29.87,29.76,10,5,0,12,2,,0.36,4,Fog-Rain,239
2014-1-15,55,41,27,42,31,25,100,77,54,29.96,29.92,29.83,10,5,0,18,4,24,0.01,4,Fog,295
2014-1-16,43,36,28,28,19,15,70,52,33,30.03,29.97,29.90,10,10,10,14,5,,0.00,2,,295
2014-1-17,53,39,24,27,23,19,75,55,34,29.98,29.90,29.83,10,10,10,16,6,22,0.00,0,,213
2014-1-18,37,31,24,27,14,6,70,51,32,30.04,29.96,29.85,10,10,10,20,9,25,0.00,1,,284
2014-1-19,50,38,26,27,21,15,68,52,36,29.95,29.91,29.88,10,10,10,22,9,26,0.00,1,,234
2014-1-20,63,46,29,25,23,20,69,46,23,29.86,29.81,29.73,10,10,10,23,8,31,0.00,0,,234
2014-1-21,45,37,28,31,27,22,75,66,57,29.84,29.70,29.58,10,8,1,17,8,23,0.02,4,Snow,38
2014-1-22,28,22,18,10,4,-1,62,47,32,30.10,29.99,29.85,10,10,10,16,4,21,0.00,2,,323
2014-1-23,35,25,14,13,8,-2,73,53,32,30.48,30.26,30.09,10,10,10,20,8,26,0.00,1,,303
2014-1-24,26,18,9,-2,-4,-7,50,37,23,30.61,30.45,30.20,10,10,10,23,8,28,0.00,0,,264
2014-1-25,40,29,18,17,6,-4,47,36,24,30.17,29.81,29.61,10,10,10,24,13,35,0.00,3,,227
2014-1-26,53,38,23,24,11,0,58,39,19,29.93,29.85,29.79,10,10,10,22,7,28,0.00,0,,234
2014-1-27,63,46,28,34,24,-3,60,43,25,30.15,29.86,29.76,10,10,10,22,11,25,0.00,1,,283
2014-1-28,28,23,18,16,9,-5,77,52,27,30.37,30.27,30.15,10,5,2,17,9,23,0.03,7,Snow,20
2014-1-29,27,17,6,12,2,-5,80,55,29,30.37,30.29,30.20,10,10,5,16,4,22,0.01,1,Snow,336
2014-1-30,36,18,0,12,3,-5,87,55,23,30.44,30.34,30.23,10,10,10,7,1,10,0.00,0,,194
2014-1-31,54,33,11,20,13,6,88,53,18,30.21,30.18,30.12,10,10,10,8,2,22,0.00,0,,234